createdAt,value
2018-05-24T00:01:46.353Z,16.40
2018-05-24T00:04:13.894Z,16.40
2018-05-24T00:06:42.121Z,16.50
2018-05-24T00:09:09.592Z,16.40
2018-05-24T00:11:37.057Z,16.50
2018-05-24T00:14:04.510Z,16.50
2018-05-24T00:16:32.000Z,16.60
2018-05-24T00:18:59.461Z,16.50
2018-05-24T00:21:26.905Z,16.60
2018-05-24T00:23:54.376Z,16.60
2018-05-24T00:26:21.876Z,16.60
2018-05-24T00:28:49.327Z,16.50
2018-05-24T00:31:16.789Z,16.50
2018-05-24T00:33:44.284Z,16.50
2018-05-24T00:36:11.753Z,16.50
2018-05-24T00:38:39.200Z,16.40
2018-05-24T00:41:06.658Z,16.40
2018-05-24T00:43:34.170Z,16.30
2018-05-24T00:46:01.620Z,16.30
2018-05-24T00:48:29.088Z,16.30
2018-05-24T00:50:56.540Z,16.30
2018-05-24T00:53:24.045Z,16.30
2018-05-24T00:55:51.517Z,16.40
2018-05-24T00:58:18.983Z,16.40
2018-05-24T01:00:46.457Z,16.40
2018-05-24T01:03:13.988Z,16.50
2018-05-24T01:05:41.430Z,16.50
2018-05-24T01:08:09.682Z,16.60
2018-05-24T01:10:37.129Z,16.60
2018-05-24T01:13:04.624Z,16.70
2018-05-24T01:15:32.077Z,16.70
2018-05-24T01:17:59.525Z,16.70
2018-05-24T01:20:27.132Z,16.70
2018-05-24T01:22:54.580Z,16.70
2018-05-24T01:25:22.380Z,16.70
2018-05-24T01:27:49.830Z,16.70
2018-05-24T01:30:17.281Z,16.70
2018-05-24T01:32:44.749Z,16.70
2018-05-24T01:35:12.196Z,16.70
2018-05-24T01:37:49.317Z,16.70
2018-05-24T01:40:16.768Z,16.70
2018-05-24T01:42:44.981Z,16.70
2018-05-24T01:45:12.485Z,16.70
2018-05-24T01:47:40.022Z,16.70
2018-05-24T01:50:07.480Z,16.70
2018-05-24T01:52:35.704Z,16.70
2018-05-24T01:55:03.152Z,16.70
2018-05-24T01:57:30.600Z,16.70
2018-05-24T01:59:58.840Z,16.70
2018-05-24T02:02:26.290Z,16.70
2018-05-24T02:04:53.737Z,16.70
2018-05-24T02:07:21.557Z,16.80
2018-05-24T02:09:49.010Z,16.80
2018-05-24T02:12:16.496Z,16.80
2018-05-24T02:14:43.963Z,16.80
2018-05-24T02:17:11.408Z,16.80
2018-05-24T02:19:38.857Z,16.80
2018-05-24T02:22:07.090Z,16.80
2018-05-24T02:24:34.537Z,16.80
2018-05-24T02:27:01.998Z,16.80
2018-05-24T02:29:29.463Z,16.90
2018-05-24T02:31:56.970Z,16.90
2018-05-24T02:34:24.549Z,16.90
2018-05-24T02:36:52.078Z,17.00
2018-05-24T02:39:19.589Z,17.00
2018-05-24T02:41:47.148Z,17.00
2018-05-24T02:44:14.612Z,17.00
2018-05-24T02:46:42.104Z,17.00
2018-05-24T02:49:09.568Z,17.00
2018-05-24T02:51:37.033Z,17.00
2018-05-24T02:54:04.575Z,17.00
2018-05-24T02:56:32.080Z,17.00
2018-05-24T02:58:59.616Z,17.00
2018-05-24T03:01:27.058Z,17.00
2018-05-24T03:03:55.273Z,17.00
2018-05-24T03:06:22.741Z,17.00
2018-05-24T03:08:50.193Z,17.00
2018-05-24T03:11:18.438Z,17.00
2018-05-24T03:13:45.913Z,17.00
2018-05-24T03:16:13.384Z,16.90
2018-05-24T03:18:40.841Z,17.00
2018-05-24T03:21:08.318Z,17.00
2018-05-24T03:23:35.787Z,17.00
2018-05-24T03:26:03.236Z,17.00
2018-05-24T03:28:30.700Z,16.90
2018-05-24T03:30:58.148Z,16.90
2018-05-24T03:33:25.612Z,16.90
2018-05-24T03:35:53.856Z,17.00
2018-05-24T03:38:21.404Z,17.00
2018-05-24T03:40:48.861Z,17.10
2018-05-24T03:43:16.325Z,17.10
2018-05-24T03:45:43.778Z,17.10
2018-05-24T03:48:11.993Z,17.20
2018-05-24T03:50:39.502Z,17.20
2018-05-24T03:53:06.948Z,17.20
2018-05-24T03:55:34.409Z,17.20
2018-05-24T03:58:01.965Z,17.30
2018-05-24T04:00:41.375Z,17.30
2018-05-24T04:03:20.808Z,17.30
2018-05-24T04:05:48.453Z,17.40
2018-05-24T04:08:15.846Z,17.40
2018-05-24T04:10:43.320Z,17.40
2018-05-24T04:13:10.852Z,17.50
2018-05-24T04:15:38.368Z,17.60
2018-05-24T04:18:05.828Z,17.60
2018-05-24T04:20:33.294Z,17.60
2018-05-24T04:23:00.780Z,17.50
2018-05-24T04:25:28.253Z,17.40
2018-05-24T04:27:55.703Z,17.40
2018-05-24T04:30:23.153Z,17.30
2018-05-24T04:32:50.613Z,17.20
2018-05-24T04:35:18.061Z,17.10
2018-05-24T04:37:46.300Z,16.90
2018-05-24T04:40:13.753Z,16.90
2018-05-24T04:42:41.220Z,16.90
2018-05-24T04:45:08.717Z,16.80
2018-05-24T04:47:36.246Z,16.70
2018-05-24T04:50:03.716Z,16.70
2018-05-24T04:52:31.186Z,16.70
2018-05-24T04:54:58.632Z,16.70
2018-05-24T04:57:26.872Z,16.70
2018-05-24T04:59:54.329Z,16.70
2018-05-24T05:02:21.789Z,16.80
2018-05-24T05:04:49.244Z,16.80
2018-05-24T05:07:17.073Z,16.80
2018-05-24T05:09:44.516Z,16.80
2018-05-24T05:12:11.964Z,16.80
2018-05-24T05:14:39.450Z,16.90
2018-05-24T05:17:06.951Z,16.90
2018-05-24T05:19:34.457Z,16.90
2018-05-24T05:22:01.867Z,16.90
2018-05-24T05:24:29.320Z,17.00
2018-05-24T05:26:56.773Z,17.00
2018-05-24T05:29:25.008Z,17.10
2018-05-24T05:31:52.460Z,17.10
2018-05-24T05:34:19.957Z,17.20
2018-05-24T05:36:47.416Z,17.20
2018-05-24T05:39:14.900Z,17.30
2018-05-24T05:41:42.361Z,17.40
2018-05-24T05:44:09.839Z,17.40
2018-05-24T05:46:37.284Z,17.50
2018-05-24T05:49:04.777Z,17.60
2018-05-24T05:51:32.244Z,17.70
2018-05-24T05:53:59.693Z,17.70
2018-05-24T05:56:27.152Z,17.80
2018-05-24T05:58:54.600Z,17.90
2018-05-24T06:01:22.828Z,17.90
2018-05-24T06:03:50.277Z,18.00
2018-05-24T06:06:17.822Z,18.00
2018-05-24T06:08:46.131Z,18.20
2018-05-24T06:11:13.706Z,18.10
2018-05-24T06:13:41.213Z,18.20
2018-05-24T06:16:08.746Z,18.20
2018-05-24T06:18:36.953Z,18.30
2018-05-24T06:21:04.430Z,18.30
2018-05-24T06:23:31.880Z,18.40
2018-05-24T06:25:59.446Z,18.40
2018-05-24T06:28:27.040Z,18.40
2018-05-24T06:30:54.413Z,18.50
2018-05-24T06:33:21.869Z,18.50
2018-05-24T06:35:49.338Z,18.50
2018-05-24T06:38:16.801Z,18.50
2018-05-24T06:40:44.248Z,18.60
2018-05-24T06:43:12.472Z,18.80
2018-05-24T06:45:39.922Z,18.80
2018-05-24T06:48:07.433Z,18.90
2018-05-24T06:50:34.888Z,19.10
2018-05-24T06:53:02.376Z,19.20
2018-05-24T06:55:29.841Z,19.20
2018-05-24T06:57:57.292Z,19.30
2018-05-24T07:00:24.827Z,19.30
2018-05-24T07:02:53.130Z,19.30
2018-05-24T07:05:21.356Z,19.40
2018-05-24T07:07:48.809Z,19.40
2018-05-24T07:10:16.293Z,19.40
2018-05-24T07:12:43.752Z,19.50
2018-05-24T07:15:11.233Z,19.50
2018-05-24T07:17:38.699Z,19.60
2018-05-24T07:20:06.153Z,19.50
2018-05-24T07:22:33.625Z,19.70
2018-05-24T07:25:01.108Z,19.80
2018-05-24T07:27:28.552Z,19.90
2018-05-24T07:29:56.016Z,20.10
2018-05-24T07:32:23.591Z,20.20
2018-05-24T07:34:51.045Z,20.20
2018-05-24T07:37:19.256Z,20.20
2018-05-24T07:39:46.814Z,20.20
2018-05-24T07:42:14.192Z,20.20
2018-05-24T07:44:41.644Z,20.10
2018-05-24T07:47:09.880Z,20.20
2018-05-24T07:49:37.332Z,20.20
2018-05-24T07:52:04.825Z,20.30
2018-05-24T07:54:32.289Z,20.40
2018-05-24T07:56:59.864Z,20.50
2018-05-24T07:59:27.313Z,20.70
2018-05-24T08:01:54.764Z,20.80
2018-05-24T08:04:22.273Z,21.00
2018-05-24T08:06:49.721Z,21.40
2018-05-24T08:09:17.184Z,21.60
2018-05-24T08:11:44.636Z,21.90
2018-05-24T08:14:13.034Z,22.70
2018-05-24T08:16:40.485Z,22.70
2018-05-24T08:19:08.709Z,22.60
2018-05-24T08:21:36.213Z,22.60
2018-05-24T08:24:03.656Z,22.50
2018-05-24T08:26:31.129Z,22.30
2018-05-24T08:28:58.584Z,22.30
2018-05-24T08:31:26.078Z,22.20
2018-05-24T08:33:53.528Z,22.10
2018-05-24T08:36:20.986Z,22.10
2018-05-24T08:38:48.477Z,22.20
2018-05-24T08:41:16.024Z,22.20
2018-05-24T08:43:43.490Z,22.50
2018-05-24T08:46:11.009Z,22.60
2018-05-24T08:48:38.573Z,22.40
2018-05-24T08:51:06.025Z,22.60
2018-05-24T08:53:33.523Z,22.60
2018-05-24T08:56:00.988Z,22.80
2018-05-24T08:58:28.445Z,23.00
2018-05-24T09:00:55.900Z,23.50
2018-05-24T09:03:23.397Z,23.60
2018-05-24T09:05:50.925Z,23.80
2018-05-24T09:08:18.393Z,24.60
2018-05-24T09:10:45.855Z,24.80
2018-05-24T09:13:14.084Z,24.80
2018-05-24T09:15:41.561Z,24.80
2018-05-24T09:18:09.033Z,25.10
2018-05-24T09:20:36.497Z,25.30
2018-05-24T09:23:03.986Z,25.50
2018-05-24T09:25:31.524Z,25.60
2018-05-24T09:27:58.975Z,25.70
2018-05-24T09:30:26.434Z,25.50
2018-05-24T09:32:54.652Z,24.60
2018-05-24T09:35:22.118Z,24.60
2018-05-24T09:37:49.609Z,24.50
2018-05-24T09:40:17.081Z,24.30
2018-05-24T09:42:44.528Z,24.10
2018-05-24T09:45:11.980Z,24.20
2018-05-24T09:47:39.484Z,24.30
2018-05-24T09:50:06.933Z,24.80
2018-05-24T09:52:34.425Z,25.20
2018-05-24T09:55:01.989Z,25.80
2018-05-24T09:57:29.369Z,26.20
2018-05-24T09:59:56.833Z,26.30
2018-05-24T10:02:24.280Z,25.70
2018-05-24T10:04:51.743Z,25.30
2018-05-24T10:07:19.193Z,24.90
2018-05-24T10:09:47.432Z,24.10
2018-05-24T10:12:14.893Z,24.10
2018-05-24T10:14:42.340Z,24.00
2018-05-24T10:17:09.816Z,23.90
2018-05-24T10:19:37.256Z,23.90
2018-05-24T10:22:05.468Z,24.20
2018-05-24T10:24:33.031Z,24.20
2018-05-24T10:27:00.472Z,24.30
2018-05-24T10:29:28.705Z,24.60
2018-05-24T10:31:56.196Z,24.60
2018-05-24T10:34:23.668Z,25.00
2018-05-24T10:36:51.132Z,25.60
2018-05-24T10:39:18.608Z,25.40
2018-05-24T10:41:46.178Z,25.30
2018-05-24T10:44:13.624Z,25.30
2018-05-24T10:46:41.074Z,25.20
2018-05-24T10:49:08.552Z,25.10
2018-05-24T10:51:36.001Z,25.10
2018-05-24T10:54:04.273Z,25.60
2018-05-24T10:56:31.713Z,25.60
2018-05-24T10:58:59.316Z,25.50
2018-05-24T11:01:26.782Z,25.50
2018-05-24T11:03:54.240Z,25.40
2018-05-24T11:06:21.797Z,25.60
2018-05-24T11:08:49.257Z,26.10
2018-05-24T11:11:16.700Z,26.40
2018-05-24T11:13:44.168Z,26.40
2018-05-24T11:16:11.616Z,26.50
2018-05-24T11:18:39.857Z,26.90
2018-05-24T11:21:07.301Z,26.90
2018-05-24T11:23:34.768Z,27.10
2018-05-24T11:26:02.277Z,27.40
2018-05-24T11:28:29.727Z,27.70
2018-05-24T11:30:57.213Z,27.80
2018-05-24T11:33:24.676Z,27.90
2018-05-24T11:35:52.416Z,27.90
2018-05-24T11:38:20.012Z,28.00
2018-05-24T11:40:47.477Z,28.20
2018-05-24T11:43:14.943Z,28.20
2018-05-24T11:45:42.389Z,28.60
2018-05-24T11:48:10.613Z,28.50
2018-05-24T11:50:38.075Z,28.50
2018-05-24T11:53:05.545Z,28.00
2018-05-24T11:55:33.040Z,27.90
2018-05-24T11:58:00.504Z,27.40
2018-05-24T12:00:27.952Z,27.10
2018-05-24T12:02:55.408Z,26.80
2018-05-24T12:05:22.864Z,26.50
2018-05-24T12:07:50.319Z,26.20
2018-05-24T12:10:17.849Z,26.10
2018-05-24T12:12:45.321Z,25.90
2018-05-24T12:15:12.845Z,25.90
2018-05-24T12:17:41.049Z,25.80
2018-05-24T12:20:08.494Z,25.80
2018-05-24T12:22:36.733Z,25.60
2018-05-24T12:25:04.180Z,25.60
2018-05-24T12:27:31.701Z,25.20
2018-05-24T12:29:59.246Z,25.20
2018-05-24T12:32:26.709Z,25.10
2018-05-24T12:34:54.157Z,25.30
2018-05-24T12:37:21.604Z,25.30
2018-05-24T12:39:49.844Z,25.40
2018-05-24T12:42:17.376Z,25.40
2018-05-24T12:44:44.838Z,25.40
2018-05-24T12:47:13.067Z,24.90
2018-05-24T12:49:40.644Z,24.90
2018-05-24T12:52:08.112Z,24.80
2018-05-24T12:54:35.566Z,24.80
2018-05-24T12:57:03.044Z,24.80
2018-05-24T12:59:30.489Z,24.60
2018-05-24T13:01:57.957Z,24.20
2018-05-24T13:04:25.416Z,24.40
2018-05-24T13:06:52.932Z,24.40
2018-05-24T13:09:20.384Z,24.30
2018-05-24T13:11:48.560Z,24.00
2018-05-24T13:14:16.064Z,23.90
2018-05-24T13:16:43.516Z,23.80
2018-05-24T13:19:10.989Z,23.60
2018-05-24T13:21:38.444Z,23.50
2018-05-24T13:24:05.901Z,23.50
2018-05-24T13:26:33.349Z,23.50
2018-05-24T13:29:01.580Z,23.50
2018-05-24T13:31:29.077Z,23.50
2018-05-24T13:33:56.599Z,23.60
2018-05-24T13:36:24.809Z,23.80
2018-05-24T13:38:52.270Z,23.70
2018-05-24T13:41:19.808Z,23.80
2018-05-24T13:43:48.021Z,23.90
2018-05-24T13:46:15.484Z,23.90
2018-05-24T13:48:42.937Z,23.80
2018-05-24T13:51:11.169Z,24.00
2018-05-24T13:53:38.649Z,24.00
2018-05-24T13:56:06.125Z,24.10
2018-05-24T13:58:33.592Z,24.20
2018-05-24T14:01:01.044Z,24.20
2018-05-24T14:03:28.528Z,24.30
2018-05-24T14:05:55.976Z,24.30
2018-05-24T14:08:23.466Z,24.30
2018-05-24T14:10:50.913Z,24.30
2018-05-24T14:13:18.388Z,24.20
2018-05-24T14:15:45.843Z,24.10
2018-05-24T14:18:13.320Z,24.00
2018-05-24T14:20:40.818Z,24.00
2018-05-24T14:23:08.290Z,24.00
2018-05-24T14:25:35.856Z,24.00
2018-05-24T14:28:03.304Z,23.90
2018-05-24T14:30:30.771Z,23.90
2018-05-24T14:32:58.219Z,23.90
2018-05-24T14:35:25.684Z,24.00
2018-05-24T14:37:53.900Z,24.10
2018-05-24T14:40:21.356Z,24.10
2018-05-24T14:42:48.839Z,24.20
2018-05-24T14:45:16.280Z,24.30
2018-05-24T14:47:44.512Z,24.70
2018-05-24T14:50:11.988Z,24.70
2018-05-24T14:52:39.452Z,24.80
2018-05-24T14:55:06.932Z,24.70
2018-05-24T14:57:34.400Z,24.60
2018-05-24T15:00:01.861Z,24.90
2018-05-24T15:02:29.312Z,25.50
2018-05-24T15:04:56.803Z,25.90
2018-05-24T15:07:24.296Z,26.10
2018-05-24T15:09:51.757Z,26.50
2018-05-24T15:12:19.228Z,26.40
2018-05-24T15:14:46.694Z,25.90
2018-05-24T15:17:14.152Z,25.60
2018-05-24T15:19:41.604Z,25.70
2018-05-24T15:22:09.110Z,25.70
2018-05-24T15:24:36.636Z,25.50
2018-05-24T15:27:04.150Z,25.20
2018-05-24T15:29:31.604Z,25.00
2018-05-24T15:31:59.053Z,24.80
2018-05-24T15:34:26.618Z,24.60
2018-05-24T15:36:54.060Z,24.30
2018-05-24T15:39:22.312Z,24.20
2018-05-24T15:41:49.788Z,24.20
2018-05-24T15:44:17.265Z,24.00
2018-05-24T15:46:44.720Z,24.10
2018-05-24T15:49:12.258Z,24.10
2018-05-24T15:51:39.716Z,24.20
2018-05-24T15:54:07.170Z,24.20
2018-05-24T15:56:35.421Z,23.80
2018-05-24T15:59:02.889Z,23.80
2018-05-24T16:01:30.462Z,23.80
2018-05-24T16:03:57.908Z,23.70
2018-05-24T16:06:25.404Z,23.60
2018-05-24T16:08:52.977Z,23.60
2018-05-24T16:11:20.424Z,23.50
2018-05-24T16:13:47.894Z,23.50
2018-05-24T16:16:15.336Z,23.50
2018-05-24T16:18:43.568Z,23.20
2018-05-24T16:21:11.059Z,23.20
2018-05-24T16:23:38.512Z,23.20
2018-05-24T16:26:06.049Z,23.10
2018-05-24T16:28:33.491Z,23.00
2018-05-24T16:31:01.724Z,23.10
2018-05-24T16:33:29.176Z,23.10
2018-05-24T16:35:56.650Z,23.10
2018-05-24T16:38:24.112Z,23.00
2018-05-24T16:40:51.786Z,22.90
2018-05-24T16:43:19.247Z,22.90
2018-05-24T16:45:47.456Z,23.00
2018-05-24T16:48:14.920Z,22.90
2018-05-24T16:50:42.372Z,22.90
2018-05-24T16:53:10.720Z,22.80
2018-05-24T16:55:38.244Z,22.80
2018-05-24T16:58:05.694Z,22.80
2018-05-24T17:00:33.930Z,22.70
2018-05-24T17:03:01.380Z,22.60
2018-05-24T17:05:28.892Z,22.50
2018-05-24T17:07:56.345Z,22.50
2018-05-24T17:10:23.828Z,22.60
2018-05-24T17:12:51.284Z,22.60
2018-05-24T17:15:18.762Z,22.50
2018-05-24T17:17:46.332Z,22.50
2018-05-24T17:20:13.783Z,22.40
2018-05-24T17:22:41.268Z,22.30
2018-05-24T17:25:08.849Z,22.30
2018-05-24T17:27:36.377Z,22.30
2018-05-24T17:30:03.832Z,22.20
2018-05-24T17:32:32.052Z,22.30
2018-05-24T17:34:59.544Z,22.30
2018-05-24T17:37:27.013Z,22.30
2018-05-24T17:39:54.472Z,22.30
2018-05-24T17:42:21.927Z,22.30
2018-05-24T17:44:49.420Z,22.20
2018-05-24T17:47:16.876Z,22.20
2018-05-24T17:49:44.360Z,22.20
2018-05-24T17:52:11.820Z,22.20
2018-05-24T17:54:39.273Z,22.10
2018-05-24T17:57:06.731Z,22.10
2018-05-24T17:59:34.240Z,22.00
2018-05-24T18:02:01.730Z,21.90
2018-05-24T18:04:29.201Z,21.80
2018-05-24T18:06:56.664Z,21.80
2018-05-24T18:09:24.225Z,21.80
2018-05-24T18:11:51.693Z,21.80
2018-05-24T18:14:19.161Z,21.80
2018-05-24T18:16:46.635Z,21.70
2018-05-24T18:19:14.093Z,21.60
2018-05-24T18:21:41.544Z,21.60
2018-05-24T18:24:09.008Z,21.50
2018-05-24T18:26:36.452Z,21.40
2018-05-24T18:29:04.680Z,21.20
2018-05-24T18:31:32.170Z,21.20
2018-05-24T18:33:59.736Z,21.20
2018-05-24T18:36:27.193Z,21.20
2018-05-24T18:38:54.646Z,21.10
2018-05-24T18:41:22.124Z,21.10
2018-05-24T18:43:49.592Z,21.10
2018-05-24T18:46:17.068Z,21.10
2018-05-24T18:48:44.536Z,21.00
2018-05-24T18:51:12.044Z,20.90
2018-05-24T18:53:39.893Z,20.90
2018-05-24T18:56:07.369Z,20.90
2018-05-24T18:58:34.910Z,20.80
2018-05-24T19:01:03.113Z,20.70
2018-05-24T19:03:30.575Z,20.70
2018-05-24T19:05:58.022Z,20.60
2018-05-24T19:08:26.269Z,20.50
2018-05-24T19:10:53.748Z,20.50
2018-05-24T19:13:21.210Z,20.50
2018-05-24T19:15:49.632Z,20.40
2018-05-24T19:18:19.228Z,20.40
2018-05-24T19:20:47.727Z,20.40
2018-05-24T19:23:15.221Z,20.40
2018-05-24T19:25:42.690Z,20.30
2018-05-24T19:28:11.005Z,20.30
2018-05-24T19:30:38.477Z,20.20
2018-05-24T19:33:05.976Z,20.20
2018-05-24T19:35:35.182Z,20.10
2018-05-24T19:38:02.681Z,20.10
2018-05-24T19:40:30.924Z,20.00
2018-05-24T19:42:58.387Z,20.00
2018-05-24T19:45:25.837Z,20.00
2018-05-24T19:47:54.069Z,19.90
2018-05-24T19:50:21.547Z,19.90
2018-05-24T19:52:49.020Z,19.80
2018-05-24T19:55:16.472Z,19.80
2018-05-24T19:57:43.952Z,19.80
2018-05-24T20:00:11.490Z,19.80
2018-05-24T20:02:38.962Z,19.80
2018-05-24T20:05:06.530Z,19.80
2018-05-24T20:07:35.076Z,19.70
2018-05-24T20:10:02.517Z,19.70
2018-05-24T20:12:29.968Z,19.70
2018-05-24T20:14:57.476Z,19.70
2018-05-24T20:17:24.920Z,19.70
2018-05-24T20:19:52.389Z,19.70
2018-05-24T20:22:19.866Z,19.70
2018-05-24T20:24:47.305Z,19.70
2018-05-24T20:27:15.603Z,19.70
2018-05-24T20:29:43.125Z,19.70
2018-05-24T20:32:12.119Z,19.60
2018-05-24T20:34:39.581Z,19.70
2018-05-24T20:37:07.057Z,19.70
2018-05-24T20:39:34.516Z,19.70
2018-05-24T20:42:02.000Z,19.60
2018-05-24T20:44:29.530Z,19.60
2018-05-24T20:46:57.037Z,19.50
2018-05-24T20:49:24.516Z,19.50
2018-05-24T20:51:52.085Z,19.50
2018-05-24T20:54:19.536Z,19.50
2018-05-24T20:56:47.000Z,19.50
2018-05-24T20:59:14.475Z,19.50
2018-05-24T21:01:41.976Z,19.40
2018-05-24T21:04:09.413Z,19.40
2018-05-24T21:06:36.862Z,19.40
2018-05-24T21:09:05.064Z,19.40
2018-05-24T21:11:32.559Z,19.30
2018-05-24T21:14:00.391Z,19.30
2018-05-24T21:16:27.753Z,19.20
2018-05-24T21:18:55.968Z,19.20
2018-05-24T21:21:23.433Z,19.10
2018-05-24T21:23:50.885Z,19.10
2018-05-24T21:26:18.404Z,19.10
2018-05-24T21:28:45.940Z,19.00
2018-05-24T21:31:13.404Z,19.00
2018-05-24T21:33:40.912Z,19.00
2018-05-24T21:36:08.548Z,18.90
2018-05-24T21:38:35.991Z,18.90
2018-05-24T21:41:04.212Z,18.90
2018-05-24T21:43:31.676Z,18.80
2018-05-24T21:45:59.192Z,18.80
2018-05-24T21:48:26.756Z,18.80
2018-05-24T21:50:54.221Z,18.70
2018-05-24T21:53:21.681Z,18.70
2018-05-24T21:55:49.137Z,18.70
2018-05-24T21:58:16.617Z,18.70
2018-05-24T22:00:49.664Z,18.60
2018-05-24T22:03:17.140Z,18.60
2018-05-24T22:05:44.640Z,18.50
2018-05-24T22:08:12.856Z,18.40
2018-05-24T22:10:40.336Z,18.40
2018-05-24T22:13:07.871Z,18.30
2018-05-24T22:15:35.333Z,18.30
2018-05-24T22:18:02.788Z,18.20
2018-05-24T22:20:31.020Z,18.10
2018-05-24T22:22:58.477Z,18.10
2018-05-24T22:25:25.972Z,18.10
2018-05-24T22:27:53.448Z,18.00
2018-05-24T22:30:20.921Z,18.00
2018-05-24T22:32:48.377Z,17.90
2018-05-24T22:35:15.845Z,17.90
2018-05-24T22:37:43.306Z,17.90
2018-05-24T22:40:10.780Z,17.90
2018-05-24T22:42:38.264Z,17.80
2018-05-24T22:45:05.720Z,17.80
2018-05-24T22:47:33.200Z,17.80
2018-05-24T22:50:00.672Z,17.80
2018-05-24T22:52:28.132Z,17.80
2018-05-24T22:54:55.608Z,17.70
2018-05-24T22:57:23.077Z,17.70
2018-05-24T22:59:50.603Z,17.70
2018-05-24T23:02:18.940Z,17.60
2018-05-24T23:04:46.411Z,17.60
2018-05-24T23:07:13.868Z,17.50
2018-05-24T23:09:41.332Z,17.50
2018-05-24T23:12:08.793Z,17.50
2018-05-24T23:14:36.265Z,17.50
2018-05-24T23:17:03.729Z,17.40
2018-05-24T23:19:31.200Z,17.40
2018-05-24T23:21:58.714Z,17.30
2018-05-24T23:24:26.276Z,17.30
2018-05-24T23:26:53.744Z,17.20
2018-05-24T23:29:21.213Z,17.20
2018-05-24T23:31:48.673Z,17.10
2018-05-24T23:34:16.145Z,17.10
2018-05-24T23:36:43.624Z,17.10
2018-05-24T23:39:11.084Z,17.00
2018-05-24T23:41:38.560Z,17.00
2018-05-24T23:44:06.079Z,16.90
2018-05-24T23:46:33.503Z,16.80
2018-05-24T23:49:00.980Z,16.80
2018-05-24T23:51:28.544Z,16.70
2018-05-24T23:53:56.005Z,16.70
2018-05-24T23:56:23.488Z,16.60
2018-05-24T23:58:50.959Z,16.60
